Time;durP1;ratioP1;P1;durP2;ratioP2;P2;SDS_P1;SDS_P2;PMS_P1;PMS_P2;Temp;Humidity;BMP_temperature;BMP_pressure;BME280_temperature;BME280_humidity;BME280_pressure;Samples;Min_cycle;Max_cycle;Signal;HPM_P1;HPM_P2
2023/05/12 00:00:43;;;;;;;3.60;0.88;;;;;;;;;;5043868;28;20064;-47
2023/05/12 00:03:11;;;;;;;3.63;0.70;;;;;;;;;;5050803;28;20486;-46
2023/05/12 00:05:39;;;;;;;4.65;0.90;;;;;;;;;;5042487;28;20044;-49
2023/05/12 00:08:07;;;;;;;3.72;0.88;;;;;;;;;;5040496;28;20365;-50
2023/05/12 00:10:38;;;;;;;6.28;1.10;;;;;;;;;;5043471;28;20041;-46
2023/05/12 00:13:05;;;;;;;3.60;0.80;;;;;;;;;;5038066;28;20372;-49
2023/05/12 00:15:33;;;;;;;3.77;1.30;;;;;;;;;;5045952;28;20068;-46
2023/05/12 00:18:01;;;;;;;4.65;1.27;;;;;;;;;;5032298;28;20482;-47
2023/05/12 00:20:30;;;;;;;4.70;1.10;;;;;;;;;;5044068;28;20045;-47
2023/05/12 00:22:58;;;;;;;5.22;0.70;;;;;;;;;;5039984;28;20036;-45
2023/05/12 00:25:25;;;;;;;3.72;0.90;;;;;;;;;;5069972;28;20145;-46
2023/05/12 00:27:54;;;;;;;3.87;0.80;;;;;;;;;;5036031;28;20111;-49
2023/05/12 00:30:22;;;;;;;4.15;0.80;;;;;;;;;;5039597;28;20037;-46
2023/05/12 00:32:50;;;;;;;3.63;0.70;;;;;;;;;;5047361;28;20160;-46
2023/05/12 00:35:17;;;;;;;3.17;0.60;;;;;;;;;;5044109;28;20048;-47
2023/05/12 00:37:45;;;;;;;4.43;0.93;;;;;;;;;;5036827;28;20060;-48
2023/05/12 00:40:13;;;;;;;5.30;0.80;;;;;;;;;;5041692;28;20663;-45
2023/05/12 00:42:41;;;;;;;4.43;0.60;;;;;;;;;;5038811;28;20073;-47
2023/05/12 00:45:11;;;;;;;5.85;1.00;;;;;;;;;;5031354;28;20037;-50
2023/05/12 00:47:39;;;;;;;3.60;0.82;;;;;;;;;;5045378;28;20045;-47
2023/05/12 00:50:07;;;;;;;4.25;1.17;;;;;;;;;;5049555;28;20427;-47
2023/05/12 00:52:35;;;;;;;4.53;0.80;;;;;;;;;;5043629;28;20063;-46
2023/05/12 00:55:04;;;;;;;4.20;0.70;;;;;;;;;;5047568;28;20094;-44
2023/05/12 00:57:32;;;;;;;5.10;0.90;;;;;;;;;;5049280;28;20541;-47
2023/05/12 01:00:00;;;;;;;5.05;0.98;;;;;;;;;;5038498;28;20044;-49
2023/05/12 01:02:29;;;;;;;3.42;0.90;;;;;;;;;;5083343;28;20047;-46
2023/05/12 01:04:57;;;;;;;4.40;0.97;;;;;;;;;;5048726;28;20089;-45
2023/05/12 01:07:26;;;;;;;2.95;0.50;;;;;;;;;;5046504;28;20048;-45
2023/05/12 01:09:54;;;;;;;3.65;0.98;;;;;;;;;;5035803;28;20407;-46
2023/05/12 01:12:21;;;;;;;3.17;0.60;;;;;;;;;;5049299;28;20044;-46
2023/05/12 01:14:50;;;;;;;4.72;0.98;;;;;;;;;;5035063;28;20044;-47
2023/05/12 01:17:19;;;;;;;5.03;0.80;;;;;;;;;;5032941;28;20055;-47
2023/05/12 01:19:49;;;;;;;4.30;0.88;;;;;;;;;;5052328;28;20044;-47
2023/05/12 01:22:17;;;;;;;4.18;0.90;;;;;;;;;;5057505;28;20503;-45
2023/05/12 01:24:50;;;;;;;4.47;0.80;;;;;;;;;;5083645;28;20117;-48
2023/05/12 01:27:20;;;;;;;5.63;0.98;;;;;;;;;;5043992;28;20049;-47
2023/05/12 01:29:49;;;;;;;4.60;1.00;;;;;;;;;;5040840;28;20405;-45
2023/05/12 01:32:17;;;;;;;3.25;0.70;;;;;;;;;;5042570;28;20052;-47
2023/05/12 01:34:46;;;;;;;3.05;0.75;;;;;;;;;;5033077;28;20051;-49
2023/05/12 01:37:14;;;;;;;5.28;0.90;;;;;;;;;;5052065;28;20139;-46
2023/05/12 01:39:42;;;;;;;5.70;0.70;;;;;;;;;;5048628;28;20040;-46
2023/05/12 01:42:10;;;;;;;5.87;0.87;;;;;;;;;;5046377;28;20037;-46
2023/05/12 01:44:40;;;;;;;4.32;0.68;;;;;;;;;;5056386;28;20617;-45
2023/05/12 01:47:10;;;;;;;4.57;0.80;;;;;;;;;;5071854;28;20033;-46
2023/05/12 01:49:38;;;;;;;3.70;0.77;;;;;;;;;;5046426;28;20073;-47
2023/05/12 01:52:05;;;;;;;4.47;1.20;;;;;;;;;;5045586;28;20119;-46
2023/05/12 01:54:33;;;;;;;4.67;1.10;;;;;;;;;;5044066;28;20041;-47
2023/05/12 01:57:01;;;;;;;4.32;1.05;;;;;;;;;;5048001;28;20120;-47
2023/05/12 01:59:28;;;;;;;20.80;1.52;;;;;;;;;;5042120;28;20068;-46
2023/05/12 02:01:57;;;;;;;5.18;1.30;;;;;;;;;;5051173;28;20071;-45
2023/05/12 02:04:26;;;;;;;4.63;1.05;;;;;;;;;;5037125;28;20407;-48
2023/05/12 02:06:53;;;;;;;5.20;1.10;;;;;;;;;;5033221;28;20075;-50
2023/05/12 02:09:21;;;;;;;3.95;0.90;;;;;;;;;;5047811;28;20040;-46
2023/05/12 02:11:49;;;;;;;3.85;0.85;;;;;;;;;;5038384;28;20041;-49
2023/05/12 02:14:17;;;;;;;3.85;0.75;;;;;;;;;;5042557;28;20403;-45
2023/05/12 02:16:45;;;;;;;3.55;0.73;;;;;;;;;;5048332;28;20041;-45
2023/05/12 02:19:15;;;;;;;4.20;1.00;;;;;;;;;;5055005;28;20452;-46
2023/05/12 02:21:44;;;;;;;5.35;1.02;;;;;;;;;;5046804;28;20036;-45
2023/05/12 02:24:12;;;;;;;5.35;1.05;;;;;;;;;;5042069;28;20051;-45
2023/05/12 02:26:41;;;;;;;3.50;0.75;;;;;;;;;;5042378;28;20072;-46
2023/05/12 02:29:09;;;;;;;4.43;1.05;;;;;;;;;;5040920;28;20036;-46
2023/05/12 02:31:37;;;;;;;4.17;1.10;;;;;;;;;;5034684;28;20071;-46
2023/05/12 02:34:04;;;;;;;4.55;1.10;;;;;;;;;;5045697;28;20127;-47
2023/05/12 02:36:34;;;;;;;5.32;0.90;;;;;;;;;;5049130;28;20041;-49
2023/05/12 02:39:02;;;;;;;3.60;1.00;;;;;;;;;;5048923;28;20124;-45
2023/05/12 02:41:29;;;;;;;4.63;1.40;;;;;;;;;;5045743;28;20071;-47
2023/05/12 02:43:57;;;;;;;4.07;1.17;;;;;;;;;;5049074;28;20455;-45
2023/05/12 02:46:25;;;;;;;4.70;1.17;;;;;;;;;;5038153;28;20120;-46
2023/05/12 02:48:53;;;;;;;5.10;1.40;;;;;;;;;;5040931;28;20127;-47
2023/05/12 02:51:20;;;;;;;5.38;1.27;;;;;;;;;;5040011;28;20071;-45
2023/05/12 02:53:49;;;;;;;4.72;1.30;;;;;;;;;;5041488;28;20508;-46
2023/05/12 02:56:17;;;;;;;5.40;1.50;;;;;;;;;;5049427;28;20040;-47
2023/05/12 02:58:44;;;;;;;8.63;2.38;;;;;;;;;;5048447;28;20465;-45
2023/05/12 03:01:12;;;;;;;6.20;2.30;;;;;;;;;;5048498;28;20115;-46
2023/05/12 03:03:40;;;;;;;6.03;2.30;;;;;;;;;;5043447;28;20540;-47
2023/05/12 03:06:08;;;;;;;8.70;2.90;;;;;;;;;;5045498;28;20045;-45
2023/05/12 03:08:36;;;;;;;8.37;2.70;;;;;;;;;;5046885;28;20098;-47
2023/05/12 03:11:05;;;;;;;10.98;3.67;;;;;;;;;;5041785;28;20119;-47
2023/05/12 03:13:33;;;;;;;9.82;3.72;;;;;;;;;;5031426;28;20045;-49
2023/05/12 03:16:01;;;;;;;10.07;3.47;;;;;;;;;;5043701;28;20463;-47
2023/05/12 03:18:28;;;;;;;14.05;4.35;;;;;;;;;;5038629;28;20594;-46
2023/05/12 03:20:56;;;;;;;9.70;4.03;;;;;;;;;;5037721;28;20582;-46
2023/05/12 03:23:24;;;;;;;11.10;3.90;;;;;;;;;;5046183;28;20079;-46
2023/05/12 03:25:51;;;;;;;10.45;3.83;;;;;;;;;;5040345;28;20127;-46
2023/05/12 03:28:21;;;;;;;12.10;4.07;;;;;;;;;;5046576;28;20036;-45
2023/05/12 03:30:49;;;;;;;12.93;4.35;;;;;;;;;;5041414;28;20468;-48
2023/05/12 03:33:16;;;;;;;11.40;3.77;;;;;;;;;;5046321;28;20052;-45
2023/05/12 03:35:44;;;;;;;11.40;4.57;;;;;;;;;;5026640;28;20040;-45
2023/05/12 03:38:12;;;;;;;14.25;4.85;;;;;;;;;;5041454;28;20751;-49
2023/05/12 03:40:40;;;;;;;13.50;4.63;;;;;;;;;;5047114;28;20399;-46
2023/05/12 03:43:08;;;;;;;16.88;4.97;;;;;;;;;;5050016;28;20119;-44
2023/05/12 03:45:37;;;;;;;12.43;4.40;;;;;;;;;;5052043;28;20475;-47
2023/05/12 03:48:05;;;;;;;14.38;5.03;;;;;;;;;;5042804;28;20086;-47
2023/05/12 03:50:33;;;;;;;13.00;5.30;;;;;;;;;;5038484;28;20041;-48
2023/05/12 03:53:01;;;;;;;19.63;5.07;;;;;;;;;;5043875;28;20142;-45
2023/05/12 03:55:28;;;;;;;13.32;5.22;;;;;;;;;;5042800;28;20072;-46
2023/05/12 03:57:56;;;;;;;15.30;5.43;;;;;;;;;;5037115;28;20136;-48
2023/05/12 04:00:24;;;;;;;17.23;5.30;;;;;;;;;;5036279;28;20049;-48
2023/05/12 04:02:53;;;;;;;20.45;5.88;;;;;;;;;;5043059;28;20033;-45
2023/05/12 04:05:20;;;;;;;18.65;6.15;;;;;;;;;;5049366;28;20430;-46
2023/05/12 04:07:49;;;;;;;17.67;6.60;;;;;;;;;;5042294;28;20076;-46
2023/05/12 04:10:17;;;;;;;17.70;6.03;;;;;;;;;;5042406;28;20032;-47
2023/05/12 04:12:45;;;;;;;18.98;5.80;;;;;;;;;;5047350;28;20048;-47
2023/05/12 04:15:14;;;;;;;22.83;6.85;;;;;;;;;;5040451;28;20068;-46
2023/05/12 04:17:42;;;;;;;21.13;6.05;;;;;;;;;;5048575;28;20098;-45
2023/05/12 04:20:11;;;;;;;17.92;6.53;;;;;;;;;;5046349;28;20037;-45
2023/05/12 04:22:39;;;;;;;22.23;6.27;;;;;;;;;;5039572;28;20041;-46
2023/05/12 04:25:07;;;;;;;16.70;5.70;;;;;;;;;;5039075;28;20678;-46
2023/05/12 04:27:35;;;;;;;21.15;5.78;;;;;;;;;;5042383;28;20091;-46
2023/05/12 04:30:02;;;;;;;18.05;6.05;;;;;;;;;;5042997;28;20447;-48
2023/05/12 04:32:30;;;;;;;23.77;6.78;;;;;;;;;;5041566;28;20156;-44
2023/05/12 04:34:57;;;;;;;20.03;5.80;;;;;;;;;;5049793;28;20036;-47
2023/05/12 04:37:27;;;;;;;21.13;6.75;;;;;;;;;;5043338;28;21273;-47
2023/05/12 04:39:54;;;;;;;23.63;6.78;;;;;;;;;;5054691;28;20037;-47
2023/05/12 04:42:22;;;;;;;16.98;5.88;;;;;;;;;;5068360;28;20040;-45
2023/05/12 04:44:49;;;;;;;20.42;6.03;;;;;;;;;;5049914;28;20552;-45
2023/05/12 04:47:17;;;;;;;21.83;5.80;;;;;;;;;;5045172;28;20128;-46
2023/05/12 04:49:45;;;;;;;20.77;6.22;;;;;;;;;;5041338;28;20041;-45
2023/05/12 04:52:13;;;;;;;20.25;5.65;;;;;;;;;;5041399;28;20666;-47
2023/05/12 04:54:42;;;;;;;20.23;5.63;;;;;;;;;;5044146;28;20033;-48
2023/05/12 04:57:10;;;;;;;19.50;4.88;;;;;;;;;;5037302;28;20067;-49
2023/05/12 04:59:37;;;;;;;18.53;5.73;;;;;;;;;;5045783;28;20041;-46
2023/05/12 05:02:08;;;;;;;19.30;4.45;;;;;;;;;;5052115;28;20045;-46
2023/05/12 05:04:35;;;;;;;18.48;5.15;;;;;;;;;;5040669;28;20072;-46
2023/05/12 05:07:03;;;;;;;16.02;5.53;;;;;;;;;;5050216;28;20499;-47
2023/05/12 05:09:31;;;;;;;14.25;4.43;;;;;;;;;;5049362;28;20510;-49
2023/05/12 05:12:02;;;;;;;17.67;4.90;;;;;;;;;;5079704;28;20037;-47
2023/05/12 05:14:30;;;;;;;19.52;5.07;;;;;;;;;;5033544;28;20586;-47
2023/05/12 05:16:58;;;;;;;18.42;5.32;;;;;;;;;;5046534;28;20040;-49
2023/05/12 05:19:26;;;;;;;15.80;5.65;;;;;;;;;;5050168;28;20028;-45
2023/05/12 05:22:14;;;;;;;17.17;4.78;;;;;;;;;;5045846;28;20037;-46
2023/05/12 05:24:42;;;;;;;15.40;4.30;;;;;;;;;;5082834;28;20559;-48
2023/05/12 05:27:11;;;;;;;19.40;4.78;;;;;;;;;;5041561;28;20052;-49
2023/05/12 05:29:39;;;;;;;17.63;5.45;;;;;;;;;;5046022;28;20117;-47
2023/05/12 05:32:07;;;;;;;14.50;4.90;;;;;;;;;;5039908;28;20375;-45
2023/05/12 05:34:36;;;;;;;15.40;5.05;;;;;;;;;;5042956;28;20046;-47
2023/05/12 05:37:05;;;;;;;15.03;4.93;;;;;;;;;;5047249;28;20063;-45
2023/05/12 05:39:32;;;;;;;14.25;4.63;;;;;;;;;;5044219;28;20507;-47
2023/05/12 05:42:00;;;;;;;14.52;4.85;;;;;;;;;;5039372;28;20061;-45
2023/05/12 05:44:29;;;;;;;18.20;5.07;;;;;;;;;;5045092;28;20068;-48
2023/05/12 05:46:57;;;;;;;14.60;4.05;;;;;;;;;;5048275;28;20487;-48
2023/05/12 05:49:24;;;;;;;12.60;4.70;;;;;;;;;;5048007;28;20094;-45
2023/05/12 05:51:52;;;;;;;19.52;4.88;;;;;;;;;;5050709;28;20123;-46
2023/05/12 05:54:20;;;;;;;15.00;4.90;;;;;;;;;;5041537;28;20669;-47
2023/05/12 05:56:47;;;;;;;13.35;4.68;;;;;;;;;;5051342;28;20045;-46
2023/05/12 05:59:15;;;;;;;12.77;4.10;;;;;;;;;;5044610;28;20113;-46
2023/05/12 06:01:44;;;;;;;12.37;3.20;;;;;;;;;;5039580;28;20111;-46
2023/05/12 06:04:12;;;;;;;10.50;3.67;;;;;;;;;;5055861;28;20502;-46
2023/05/12 06:06:40;;;;;;;7.68;2.97;;;;;;;;;;5041368;28;20071;-50
2023/05/12 06:09:11;;;;;;;9.43;2.25;;;;;;;;;;5041431;28;20064;-49
2023/05/12 06:11:39;;;;;;;8.15;2.47;;;;;;;;;;5045791;28;20110;-48
2023/05/12 06:14:06;;;;;;;10.07;2.77;;;;;;;;;;5041630;28;20484;-48
2023/05/12 06:16:34;;;;;;;9.98;3.17;;;;;;;;;;5035031;28;20075;-46
2023/05/12 06:19:05;;;;;;;7.93;2.72;;;;;;;;;;5049653;28;20040;-45
2023/05/12 06:21:33;;;;;;;10.25;2.88;;;;;;;;;;5043322;28;20127;-48
2023/05/12 06:24:01;;;;;;;9.73;2.60;;;;;;;;;;5046735;28;20529;-47
2023/05/12 06:26:30;;;;;;;7.97;2.43;;;;;;;;;;5051120;28;20491;-47
2023/05/12 06:28:57;;;;;;;10.88;3.20;;;;;;;;;;5036652;28;20081;-46
2023/05/12 06:31:25;;;;;;;13.32;2.30;;;;;;;;;;5046814;28;20144;-47
2023/05/12 06:33:54;;;;;;;8.57;2.55;;;;;;;;;;5050664;28;20146;-45
2023/05/12 06:36:23;;;;;;;11.05;3.40;;;;;;;;;;5042627;28;20128;-48
2023/05/12 06:38:51;;;;;;;9.63;3.37;;;;;;;;;;5042721;28;20090;-46
2023/05/12 06:41:20;;;;;;;7.45;2.50;;;;;;;;;;5052194;28;20040;-45
2023/05/12 06:43:48;;;;;;;9.48;3.13;;;;;;;;;;5050004;28;20114;-46
2023/05/12 06:46:16;;;;;;;8.52;2.83;;;;;;;;;;5028552;28;20081;-46
2023/05/12 06:48:44;;;;;;;8.32;2.40;;;;;;;;;;5044503;28;20562;-45
2023/05/12 06:51:13;;;;;;;9.80;2.70;;;;;;;;;;5083025;27;20113;-46
2023/05/12 06:53:42;;;;;;;8.98;3.08;;;;;;;;;;5049269;28;20090;-47
2023/05/12 06:56:10;;;;;;;11.57;3.28;;;;;;;;;;5044742;28;20029;-46
2023/05/12 06:58:37;;;;;;;8.77;2.60;;;;;;;;;;5042488;28;20094;-45
2023/05/12 07:01:05;;;;;;;10.85;3.17;;;;;;;;;;5048892;28;20044;-46
2023/05/12 07:03:33;;;;;;;9.70;3.13;;;;;;;;;;5038829;28;20051;-46
2023/05/12 07:06:01;;;;;;;11.38;3.30;;;;;;;;;;5073051;28;20166;-50
2023/05/12 07:08:29;;;;;;;12.52;3.00;;;;;;;;;;5057668;28;20106;-49
2023/05/12 07:10:59;;;;;;;12.18;3.28;;;;;;;;;;5044905;28;20582;-47
2023/05/12 07:13:27;;;;;;;9.15;3.30;;;;;;;;;;5040983;28;20204;-47
2023/05/12 07:15:55;;;;;;;10.10;3.60;;;;;;;;;;5035345;28;20032;-47
2023/05/12 07:18:23;;;;;;;11.18;3.35;;;;;;;;;;5050398;28;20109;-50
2023/05/12 07:20:52;;;;;;;9.10;3.20;;;;;;;;;;5039807;28;20037;-47
2023/05/12 07:23:19;;;;;;;11.48;2.83;;;;;;;;;;5049744;28;20130;-46
2023/05/12 07:25:47;;;;;;;8.63;3.17;;;;;;;;;;5036056;28;20033;-47
2023/05/12 07:28:16;;;;;;;12.17;3.10;;;;;;;;;;5045786;28;20616;-48
2023/05/12 07:30:44;;;;;;;11.38;3.55;;;;;;;;;;5040630;28;20056;-47
2023/05/12 07:33:12;;;;;;;10.85;3.10;;;;;;;;;;5051542;28;20119;-46
2023/05/12 07:35:39;;;;;;;10.52;3.30;;;;;;;;;;5042320;28;20116;-46
2023/05/12 07:38:08;;;;;;;8.07;2.70;;;;;;;;;;5047726;28;20071;-48
2023/05/12 07:40:36;;;;;;;9.97;2.80;;;;;;;;;;5044618;28;20110;-48
2023/05/12 07:43:03;;;;;;;8.48;2.67;;;;;;;;;;5035481;28;20083;-46
2023/05/12 07:45:33;;;;;;;10.23;2.50;;;;;;;;;;5036938;28;20307;-46
2023/05/12 07:48:00;;;;;;;10.18;2.92;;;;;;;;;;5039087;28;20195;-49
2023/05/12 07:50:28;;;;;;;8.73;2.35;;;;;;;;;;5047421;28;20044;-47
2023/05/12 07:52:55;;;;;;;13.03;3.33;;;;;;;;;;5041309;28;20678;-46
2023/05/12 07:55:24;;;;;;;11.85;2.78;;;;;;;;;;5031401;28;20041;-46
2023/05/12 07:57:52;;;;;;;9.35;2.92;;;;;;;;;;5038284;28;20033;-45
2023/05/12 08:00:20;;;;;;;7.78;2.80;;;;;;;;;;5047576;28;20044;-47
2023/05/12 08:02:49;;;;;;;9.73;3.35;;;;;;;;;;5043925;28;20410;-45
2023/05/12 08:05:16;;;;;;;7.87;2.40;;;;;;;;;;5045843;28;20044;-48
2023/05/12 08:07:45;;;;;;;9.85;2.45;;;;;;;;;;5048987;28;20051;-46
2023/05/12 08:10:13;;;;;;;10.13;2.60;;;;;;;;;;5089523;27;20469;-47
2023/05/12 08:12:41;;;;;;;12.38;2.45;;;;;;;;;;5037225;28;20045;-47
2023/05/12 08:15:09;;;;;;;8.88;2.58;;;;;;;;;;5044863;28;20120;-51
2023/05/12 08:17:37;;;;;;;11.60;3.17;;;;;;;;;;5038937;28;20079;-47
2023/05/12 08:20:07;;;;;;;7.88;2.47;;;;;;;;;;5046179;28;20044;-47
2023/05/12 08:22:35;;;;;;;7.93;2.15;;;;;;;;;;5042143;28;20060;-46
2023/05/12 08:25:03;;;;;;;9.85;2.72;;;;;;;;;;5043772;28;20136;-46
2023/05/12 08:27:31;;;;;;;9.90;2.50;;;;;;;;;;5028425;28;20102;-46
2023/05/12 08:29:58;;;;;;;8.43;2.10;;;;;;;;;;5025460;28;20131;-47
2023/05/12 08:32:27;;;;;;;8.70;2.50;;;;;;;;;;5034382;28;20076;-47
2023/05/12 08:35:00;;;;;;;7.78;2.67;;;;;;;;;;5031836;28;20465;-47
2023/05/12 08:37:30;;;;;;;7.35;2.58;;;;;;;;;;5033055;28;20052;-46
2023/05/12 08:40:02;;;;;;;6.80;2.47;;;;;;;;;;5030895;28;20418;-46
2023/05/12 08:42:36;;;;;;;8.17;2.00;;;;;;;;;;5034616;28;20032;-47
2023/05/12 08:45:05;;;;;;;8.65;2.05;;;;;;;;;;5034195;28;20119;-47
2023/05/12 08:47:34;;;;;;;7.40;1.95;;;;;;;;;;5027902;28;20055;-46
2023/05/12 08:50:02;;;;;;;10.32;2.63;;;;;;;;;;5034006;28;20056;-46
2023/05/12 08:52:34;;;;;;;9.50;2.42;;;;;;;;;;5029494;28;20490;-47
2023/05/12 08:55:03;;;;;;;9.70;2.30;;;;;;;;;;5038703;28;20055;-48
2023/05/12 08:57:31;;;;;;;7.85;2.30;;;;;;;;;;5025375;28;21239;-47
2023/05/12 08:59:59;;;;;;;9.93;2.40;;;;;;;;;;5032993;28;20076;-45
2023/05/12 09:02:30;;;;;;;7.05;2.10;;;;;;;;;;5033141;28;20044;-46
2023/05/12 09:05:18;;;;;;;7.20;2.13;;;;;;;;;;5032126;28;20114;-48
2023/05/12 09:07:49;;;;;;;9.43;2.30;;;;;;;;;;5026284;28;20418;-48
2023/05/12 09:10:18;;;;;;;6.28;1.63;;;;;;;;;;5034655;28;20072;-47
2023/05/12 09:13:03;;;;;;;8.82;2.05;;;;;;;;;;5058404;28;20047;-49
2023/05/12 09:15:33;;;;;;;8.63;2.53;;;;;;;;;;5030106;28;20106;-45
2023/05/12 09:18:01;;;;;;;8.80;2.67;;;;;;;;;;5023126;28;20072;-48
2023/05/12 09:20:29;;;;;;;13.20;2.60;;;;;;;;;;5034777;28;20735;-48
2023/05/12 09:23:11;;;;;;;10.65;2.85;;;;;;;;;;5035526;28;20060;-47
2023/05/12 09:25:38;;;;;;;9.35;3.00;;;;;;;;;;5027150;28;20568;-46
2023/05/12 09:28:06;;;;;;;9.95;2.97;;;;;;;;;;5030345;28;20041;-47
2023/05/12 09:30:37;;;;;;;8.32;2.75;;;;;;;;;;5036562;28;20642;-50
2023/05/12 09:33:08;;;;;;;11.20;2.73;;;;;;;;;;5032811;28;20036;-47
2023/05/12 09:35:40;;;;;;;11.02;3.15;;;;;;;;;;5026800;28;20055;-45
2023/05/12 09:38:10;;;;;;;11.05;2.88;;;;;;;;;;5032137;28;20048;-45
2023/05/12 09:40:38;;;;;;;12.63;3.50;;;;;;;;;;5033825;28;20045;-46
2023/05/12 09:43:06;;;;;;;12.90;3.15;;;;;;;;;;5032844;28;20115;-47
2023/05/12 09:45:35;;;;;;;12.50;3.67;;;;;;;;;;5029343;28;20680;-47
2023/05/12 09:48:08;;;;;;;10.18;3.45;;;;;;;;;;5030146;28;20511;-46
2023/05/12 09:50:46;;;;;;;12.30;3.75;;;;;;;;;;5034556;28;20045;-48
2023/05/12 09:53:17;;;;;;;11.30;2.63;;;;;;;;;;5027851;28;20045;-49
2023/05/12 09:55:47;;;;;;;10.98;2.35;;;;;;;;;;5032867;28;20909;-48
2023/05/12 09:58:15;;;;;;;9.33;2.57;;;;;;;;;;5034280;28;20037;-48
2023/05/12 10:00:43;;;;;;;8.90;2.00;;;;;;;;;;5034604;28;20114;-51
2023/05/12 10:03:33;;;;;;;9.50;2.10;;;;;;;;;;5032677;28;20515;-48
2023/05/12 10:06:02;;;;;;;8.82;2.55;;;;;;;;;;5030011;28;20059;-49
2023/05/12 10:08:38;;;;;;;11.05;2.85;;;;;;;;;;5034554;28;20578;-48
2023/05/12 10:11:06;;;;;;;8.57;1.97;;;;;;;;;;5028370;28;20168;-49
2023/05/12 10:13:33;;;;;;;9.35;2.25;;;;;;;;;;5038565;28;20198;-47
2023/05/12 10:16:02;;;;;;;8.80;2.78;;;;;;;;;;5015954;28;20231;-48
2023/05/12 10:18:31;;;;;;;10.23;3.13;;;;;;;;;;5038107;28;20048;-49
2023/05/12 10:20:59;;;;;;;9.55;2.58;;;;;;;;;;5027602;28;20526;-47
2023/05/12 10:23:27;;;;;;;9.07;2.20;;;;;;;;;;5034905;28;20064;-48
2023/05/12 10:26:00;;;;;;;7.85;2.50;;;;;;;;;;5028745;28;20070;-48
2023/05/12 10:28:28;;;;;;;8.30;2.70;;;;;;;;;;5031832;28;20080;-47
2023/05/12 10:30:56;;;;;;;7.38;2.05;;;;;;;;;;5034336;28;20491;-51
2023/05/12 10:33:24;;;;;;;8.55;2.05;;;;;;;;;;5031708;28;20078;-47
2023/05/12 10:35:52;;;;;;;9.63;2.53;;;;;;;;;;5029628;28;20060;-48
2023/05/12 10:38:20;;;;;;;8.65;2.53;;;;;;;;;;5033010;28;20052;-47
2023/05/12 10:40:56;;;;;;;7.25;2.67;;;;;;;;;;5036323;28;20151;-48
2023/05/12 10:43:26;;;;;;;8.70;2.20;;;;;;;;;;5036311;28;20049;-47
2023/05/12 10:46:07;;;;;;;7.63;2.50;;;;;;;;;;5028148;28;21485;-47
2023/05/12 10:48:36;;;;;;;7.43;2.23;;;;;;;;;;5034560;28;20131;-47
2023/05/12 10:51:07;;;;;;;10.85;3.00;;;;;;;;;;5031383;28;20053;-46
2023/05/12 10:53:35;;;;;;;8.70;3.20;;;;;;;;;;5035597;28;20040;-47
2023/05/12 10:56:21;;;;;;;7.35;2.33;;;;;;;;;;5015300;28;20119;-47
2023/05/12 10:59:04;;;;;;;8.75;2.35;;;;;;;;;;5032226;28;20067;-48
2023/05/12 11:01:33;;;;;;;8.17;2.30;;;;;;;;;;5020017;28;20056;-47
2023/05/12 11:04:12;;;;;;;9.52;2.65;;;;;;;;;;5011837;28;20066;-46
2023/05/12 11:06:41;;;;;;;10.90;3.08;;;;;;;;;;5023322;28;20833;-51
2023/05/12 11:09:10;;;;;;;6.75;2.30;;;;;;;;;;5025596;28;20703;-46
2023/05/12 11:11:40;;;;;;;10.98;2.90;;;;;;;;;;5032531;28;20063;-48
2023/05/12 11:14:08;;;;;;;10.10;2.67;;;;;;;;;;5024128;28;20067;-46
2023/05/12 11:16:44;;;;;;;8.75;2.70;;;;;;;;;;5030625;28;20040;-44
2023/05/12 11:19:13;;;;;;;6.95;2.55;;;;;;;;;;5034308;28;20082;-50
2023/05/12 11:21:41;;;;;;;7.53;2.70;;;;;;;;;;5029250;28;20070;-48
2023/05/12 11:24:10;;;;;;;8.15;2.50;;;;;;;;;;5032803;28;20494;-47
2023/05/12 11:26:41;;;;;;;5.57;2.00;;;;;;;;;;5025690;28;20052;-46
2023/05/12 11:29:08;;;;;;;8.90;2.20;;;;;;;;;;5028021;28;20140;-46
2023/05/12 11:31:36;;;;;;;5.65;1.80;;;;;;;;;;5034204;28;20121;-48
2023/05/12 11:34:06;;;;;;;5.80;1.80;;;;;;;;;;5032030;28;20130;-46
2023/05/12 11:36:41;;;;;;;7.05;2.22;;;;;;;;;;5026566;28;20506;-48
2023/05/12 11:39:13;;;;;;;7.30;2.43;;;;;;;;;;5033900;28;20051;-46
2023/05/12 11:41:40;;;;;;;11.68;2.30;;;;;;;;;;5029368;28;20049;-47
2023/05/12 11:44:17;;;;;;;8.68;2.30;;;;;;;;;;5033335;28;20121;-45
2023/05/12 11:46:56;;;;;;;6.72;2.20;;;;;;;;;;5026120;28;20048;-49
2023/05/12 11:49:26;;;;;;;5.63;2.00;;;;;;;;;;5026838;28;20467;-48
2023/05/12 11:51:54;;;;;;;6.90;2.30;;;;;;;;;;5029562;28;20054;-48
2023/05/12 11:54:22;;;;;;;6.05;2.05;;;;;;;;;;5031997;28;20837;-51
2023/05/12 11:56:50;;;;;;;6.32;1.98;;;;;;;;;;5028959;28;20483;-46
2023/05/12 11:59:28;;;;;;;10.23;2.30;;;;;;;;;;5032758;28;20119;-50
2023/05/12 12:01:56;;;;;;;6.18;1.98;;;;;;;;;;5026013;28;20044;-47
2023/05/12 12:04:35;;;;;;;8.40;2.50;;;;;;;;;;5028322;28;20052;-47
2023/05/12 12:07:05;;;;;;;7.93;2.63;;;;;;;;;;5024771;28;20094;-46
2023/05/12 12:09:35;;;;;;;6.47;2.45;;;;;;;;;;5029702;28;20045;-47
2023/05/12 12:12:03;;;;;;;8.15;2.13;;;;;;;;;;5030563;28;20154;-47
2023/05/12 12:14:32;;;;;;;5.90;1.90;;;;;;;;;;5029767;28;20119;-45
2023/05/12 12:17:00;;;;;;;5.73;1.73;;;;;;;;;;5019759;28;20041;-46
2023/05/12 12:19:28;;;;;;;6.88;2.33;;;;;;;;;;5033910;28;20068;-44
2023/05/12 12:21:57;;;;;;;6.57;2.55;;;;;;;;;;5028876;28;20732;-48
2023/05/12 12:24:25;;;;;;;5.70;1.70;;;;;;;;;;5032120;28;20601;-47
2023/05/12 12:26:53;;;;;;;7.78;2.10;;;;;;;;;;5027209;28;20595;-47
2023/05/12 12:29:22;;;;;;;5.37;1.63;;;;;;;;;;5029242;28;20241;-47
2023/05/12 12:31:50;;;;;;;6.30;2.22;;;;;;;;;;5032664;28;20040;-47
2023/05/12 12:34:18;;;;;;;7.78;2.20;;;;;;;;;;5029084;28;20040;-48
2023/05/12 12:36:47;;;;;;;9.10;2.15;;;;;;;;;;5023348;28;20040;-47
2023/05/12 12:39:16;;;;;;;9.20;2.78;;;;;;;;;;5026745;28;20122;-47
2023/05/12 12:41:47;;;;;;;6.63;2.30;;;;;;;;;;5033550;28;20537;-46
2023/05/12 12:44:15;;;;;;;6.35;2.65;;;;;;;;;;5029233;28;20090;-49
2023/05/12 12:46:43;;;;;;;6.45;2.10;;;;;;;;;;5026998;28;20043;-45
2023/05/12 12:49:10;;;;;;;5.78;1.80;;;;;;;;;;5027739;28;20051;-45
2023/05/12 12:51:38;;;;;;;8.35;2.08;;;;;;;;;;5024877;28;20072;-46
2023/05/12 12:54:13;;;;;;;8.10;2.33;;;;;;;;;;5032365;28;20037;-46
2023/05/12 12:56:43;;;;;;;7.53;2.13;;;;;;;;;;5029199;28;20045;-48
2023/05/12 12:59:12;;;;;;;7.13;1.85;;;;;;;;;;5038114;28;20040;-46
2023/05/12 13:01:39;;;;;;;7.40;1.80;;;;;;;;;;5030255;28;20574;-46
2023/05/12 13:04:07;;;;;;;7.00;1.98;;;;;;;;;;5062309;27;20072;-50
2023/05/12 13:06:35;;;;;;;7.20;2.20;;;;;;;;;;5028868;28;20094;-48
2023/05/12 13:09:02;;;;;;;6.30;2.30;;;;;;;;;;5035917;28;20343;-46
2023/05/12 13:11:30;;;;;;;6.85;2.20;;;;;;;;;;5035305;28;20052;-52
2023/05/12 13:14:01;;;;;;;7.70;2.40;;;;;;;;;;5037617;28;20072;-51
2023/05/12 13:16:28;;;;;;;8.02;2.08;;;;;;;;;;5040209;28;20491;-47
2023/05/12 13:18:56;;;;;;;6.17;2.10;;;;;;;;;;5043082;28;20044;-49
2023/05/12 13:21:24;;;;;;;6.05;1.88;;;;;;;;;;5042470;28;20402;-45
2023/05/12 13:23:52;;;;;;;5.57;2.03;;;;;;;;;;5045601;28;20102;-46
2023/05/12 13:26:20;;;;;;;5.43;1.85;;;;;;;;;;5054670;28;21616;-51
2023/05/12 13:28:47;;;;;;;6.47;1.90;;;;;;;;;;5046248;28;20037;-47
2023/05/12 13:31:17;;;;;;;6.63;1.80;;;;;;;;;;5045510;28;20097;-47
2023/05/12 13:33:45;;;;;;;5.20;1.60;;;;;;;;;;5046428;28;20051;-45
2023/05/12 13:36:12;;;;;;;6.25;2.08;;;;;;;;;;5045388;28;20368;-47
2023/05/12 13:38:41;;;;;;;5.82;2.05;;;;;;;;;;5042817;28;20049;-47
2023/05/12 13:41:09;;;;;;;6.15;2.00;;;;;;;;;;5040790;28;20048;-47
2023/05/12 13:43:36;;;;;;;5.20;1.80;;;;;;;;;;5047208;28;20478;-48
2023/05/12 13:46:04;;;;;;;6.97;2.47;;;;;;;;;;5039262;28;20124;-47
2023/05/12 13:48:33;;;;;;;7.28;2.30;;;;;;;;;;5054514;28;20102;-50
2023/05/12 13:51:00;;;;;;;6.88;2.38;;;;;;;;;;5058635;28;20038;-45
2023/05/12 13:53:28;;;;;;;4.70;1.55;;;;;;;;;;5047996;28;20089;-47
2023/05/12 13:55:56;;;;;;;6.03;1.60;;;;;;;;;;5049663;28;20041;-49
2023/05/12 13:58:23;;;;;;;8.98;1.80;;;;;;;;;;5048876;28;20753;-50
2023/05/12 14:00:51;;;;;;;7.57;1.90;;;;;;;;;;5050066;28;20044;-45
2023/05/12 14:03:19;;;;;;;5.70;1.77;;;;;;;;;;5044868;28;20811;-49
2023/05/12 14:05:48;;;;;;;7.22;2.50;;;;;;;;;;5047906;28;20531;-48
2023/05/12 14:08:16;;;;;;;5.70;2.10;;;;;;;;;;5047008;28;20048;-48
2023/05/12 14:10:43;;;;;;;6.65;2.53;;;;;;;;;;5052697;28;20097;-46
2023/05/12 14:13:12;;;;;;;7.63;2.10;;;;;;;;;;5049079;28;20087;-45
2023/05/12 14:15:40;;;;;;;6.50;1.55;;;;;;;;;;5043420;28;20036;-45
2023/05/12 14:18:16;;;;;;;6.60;1.67;;;;;;;;;;5045229;28;20493;-46
2023/05/12 14:20:44;;;;;;;5.07;1.30;;;;;;;;;;5044975;28;20036;-47
2023/05/12 14:23:13;;;;;;;4.43;1.35;;;;;;;;;;5043599;28;20039;-47
2023/05/12 14:25:41;;;;;;;7.32;1.98;;;;;;;;;;5042934;28;20075;-50
2023/05/12 14:28:09;;;;;;;5.35;1.60;;;;;;;;;;5044814;28;20045;-46
2023/05/12 14:30:37;;;;;;;6.45;1.52;;;;;;;;;;5042173;28;20051;-47
2023/05/12 14:33:05;;;;;;;5.87;1.80;;;;;;;;;;5051423;28;20028;-50
2023/05/12 14:35:33;;;;;;;5.97;1.52;;;;;;;;;;5049391;28;20049;-47
2023/05/12 14:38:00;;;;;;;5.70;2.17;;;;;;;;;;5047616;28;20048;-47
2023/05/12 14:40:29;;;;;;;6.22;2.10;;;;;;;;;;5048068;28;20082;-46
2023/05/12 14:42:58;;;;;;;6.18;1.98;;;;;;;;;;5040813;28;20116;-46
2023/05/12 14:45:27;;;;;;;7.37;2.53;;;;;;;;;;5051366;28;20127;-47
2023/05/12 14:47:54;;;;;;;6.45;1.95;;;;;;;;;;5043324;28;20660;-47